Time;durP1;ratioP1;P1;durP2;ratioP2;P2;SDS_P1;SDS_P2;PMS_P1;PMS_P2;Temp;Humidity;BMP_temperature;BMP_pressure;BME280_temperature;BME280_humidity;BME280_pressure;Samples;Min_cycle;Max_cycle;Signal;HPM_P1;HPM_P2
2022/02/03 00:02:37;;;;;;;14.00;8.07;;;;;;;-146.41;100.00;57768.22;4965645;28;20358;-68
2022/02/03 00:07:48;;;;;;;11.20;8.25;;;;;;;-146.41;100.00;57768.22;4950235;28;20042;-68
2022/02/03 00:25:06;;;;;;;15.27;10.90;;;;;;;-146.41;100.00;57768.22;4965004;28;20488;-68
2022/02/03 00:36:03;;;;;;;15.80;10.90;;;;;;;-146.41;100.00;57768.22;4962459;28;20047;-68
2022/02/03 00:52:26;;;;;;;20.52;13.60;;;;;;;-146.41;100.00;57768.22;4969418;28;20053;-67
2022/02/03 00:54:57;;;;;;;18.88;13.20;;;;;;;-146.41;100.00;57768.22;4969386;28;20058;-68
2022/02/03 00:57:43;;;;;;;22.40;14.75;;;;;;;-146.41;100.00;57768.22;4970492;28;20054;-67
2022/02/03 01:00:18;;;;;;;21.33;14.63;;;;;;;-146.41;100.00;57768.22;4969503;28;20133;-67
2022/02/03 01:03:00;;;;;;;21.60;14.75;;;;;;;-146.41;100.00;57768.22;4969675;28;20061;-67
2022/02/03 01:05:32;;;;;;;20.65;14.02;;;;;;;-146.41;100.00;57768.22;4971120;28;20053;-67
2022/02/03 01:08:13;;;;;;;18.00;12.18;;;;;;;-146.41;100.00;57768.22;4961264;28;20090;-67
2022/02/03 01:10:52;;;;;;;19.10;13.18;;;;;;;-146.41;100.00;57768.22;4970621;28;20512;-67
2022/02/03 01:13:51;;;;;;;25.15;16.17;;;;;;;-146.41;100.00;57768.22;4971879;28;20129;-67
2022/02/03 01:43:27;;;;;;;26.13;15.15;;;;;;;-146.41;100.00;57768.22;4968854;28;20061;-67
2022/02/03 01:46:01;;;;;;;18.70;12.45;;;;;;;-146.41;100.00;57768.22;4969372;28;20089;-67
2022/02/03 01:53:59;;;;;;;24.15;15.35;;;;;;;-146.41;100.00;57768.22;4965344;28;20053;-68
2022/02/03 01:56:50;;;;;;;21.13;15.18;;;;;;;-146.41;100.00;57768.22;4968230;28;20138;-67
2022/02/03 01:59:28;;;;;;;21.05;14.15;;;;;;;-146.41;100.00;57768.22;4965311;28;20543;-68
2022/02/03 02:02:05;;;;;;;15.00;11.13;;;;;;;-146.41;100.00;57768.22;4968107;28;20078;-67
2022/02/03 02:05:20;;;;;;;20.02;13.38;;;;;;;-146.41;100.00;57768.22;4965714;28;20146;-68
2022/02/03 02:07:57;;;;;;;24.05;13.88;;;;;;;-146.41;100.00;57768.22;4938140;28;20141;-67
2022/02/03 02:39:31;;;;;;;;;;;;;;;-146.41;100.00;57768.22;4967873;28;20057;-67
2022/02/03 02:44:49;;;;;;;16.00;9.65;;;;;;;-146.41;100.00;57768.22;4965758;28;20145;-68
2022/02/03 02:47:52;;;;;;;16.38;10.30;;;;;;;-146.41;100.00;57768.22;4967208;28;20065;-67
2022/02/03 02:50:41;;;;;;;15.57;11.02;;;;;;;-146.41;100.00;57768.22;4965314;28;20055;-67
2022/02/03 02:54:27;;;;;;;14.07;9.82;;;;;;;-146.41;100.00;57768.22;4966601;28;20050;-67
2022/02/03 03:33:33;;;;;;;13.65;7.70;;;;;;;-146.41;100.00;57768.22;4965386;28;20133;-67
2022/02/03 03:36:11;;;;;;;16.65;9.02;;;;;;;-146.41;100.00;57768.22;4967168;28;20142;-68
2022/02/03 03:38:45;;;;;;;13.65;7.63;;;;;;;-146.41;100.00;57768.22;4965366;28;20053;-68
2022/02/03 03:41:21;;;;;;;15.75;9.18;;;;;;;-146.41;100.00;57768.22;4967110;28;20042;-68
2022/02/03 03:44:07;;;;;;;14.20;9.25;;;;;;;-146.41;100.00;57768.22;4965943;28;20043;-67
2022/02/03 03:46:46;;;;;;;11.77;7.45;;;;;;;-146.41;100.00;57768.22;4966524;28;20050;-67
2022/02/03 03:49:46;;;;;;;16.35;8.77;;;;;;;-146.41;100.00;57768.22;4964600;28;20073;-67
2022/02/03 03:52:24;;;;;;;13.05;8.73;;;;;;;-146.41;100.00;57768.22;4966129;28;20050;-68
2022/02/03 03:55:19;;;;;;;13.88;8.32;;;;;;;-146.41;100.00;57768.22;4951722;28;20130;-68
2022/02/03 04:41:15;;;;;;;9.25;6.50;;;;;;;-146.41;100.00;57768.22;4967702;28;20522;-68
2022/02/03 04:43:58;;;;;;;9.30;6.35;;;;;;;-146.41;100.00;57768.22;4944397;28;20050;-67
2022/02/03 04:59:44;;;;;;;7.03;4.75;;;;;;;-146.41;100.00;57768.22;4970541;28;20051;-68
2022/02/03 05:05:19;;;;;;;7.72;5.03;;;;;;;-146.41;100.00;57768.22;4966706;28;20074;-67
2022/02/03 05:08:37;;;;;;;10.85;6.10;;;;;;;-146.41;100.00;57768.22;4967522;28;20503;-67
2022/02/03 05:11:34;;;;;;;6.65;4.70;;;;;;;-146.41;100.00;57768.22;4967025;28;20074;-67
2022/02/03 05:15:03;;;;;;;8.93;6.13;;;;;;;-146.41;100.00;57768.22;4970092;28;20588;-68
2022/02/03 05:42:15;;;;;;;10.23;7.63;;;;;;;-146.41;100.00;57768.22;4963453;28;20067;-68
2022/02/03 06:04:32;;;;;;;11.90;6.82;;;;;;;-146.41;100.00;57768.22;4965134;28;20046;-67
2022/02/03 06:07:28;;;;;;;12.70;6.78;;;;;;;-146.41;100.00;57768.22;4965594;28;20898;-67
2022/02/03 06:13:12;;;;;;;9.65;6.47;;;;;;;-146.41;100.00;57768.22;4911597;28;20058;-67
2022/02/03 06:16:04;;;;;;;8.80;5.95;;;;;;;-146.41;100.00;57768.22;4964593;28;20047;-67
2022/02/03 06:24:16;;;;;;;10.40;6.03;;;;;;;-146.41;100.00;57768.22;4962979;28;20059;-68
2022/02/03 06:29:42;;;;;;;7.30;4.88;;;;;;;-146.41;100.00;57768.22;4963077;28;20542;-67
2022/02/03 06:32:12;;;;;;;11.00;6.57;;;;;;;-146.41;100.00;57768.22;4963263;28;20097;-68
2022/02/03 06:34:43;;;;;;;9.85;6.68;;;;;;;-146.41;100.00;57768.22;4965772;28;20574;-67
2022/02/03 06:37:13;;;;;;;10.52;5.70;;;;;;;-146.41;100.00;57768.22;4965764;28;20138;-68
2022/02/03 06:39:44;;;;;;;11.27;7.00;;;;;;;-146.41;100.00;57768.22;4966570;28;20133;-67
2022/02/03 06:42:15;;;;;;;11.35;6.47;;;;;;;-146.41;100.00;57768.22;4966697;28;20211;-68
2022/02/03 06:45:00;;;;;;;10.52;6.13;;;;;;;-146.41;100.00;57768.22;4963479;28;20499;-68
2022/02/03 06:47:46;;;;;;;11.43;6.03;;;;;;;-146.41;100.00;57768.22;4966849;28;20133;-67
2022/02/03 06:50:23;;;;;;;9.27;6.03;;;;;;;-146.41;100.00;57768.22;4964311;28;20555;-67
2022/02/03 06:53:09;;;;;;;7.35;4.38;;;;;;;-146.41;100.00;57768.22;4965444;28;20049;-68
2022/02/03 07:01:09;;;;;;;10.90;5.53;;;;;;;-146.41;100.00;57768.22;4960737;28;20431;-67
2022/02/03 07:03:43;;;;;;;10.02;6.03;;;;;;;-146.41;100.00;57768.22;4964334;28;20053;-68
2022/02/03 07:06:14;;;;;;;9.05;5.70;;;;;;;-146.41;100.00;57768.22;4963477;28;20055;-67
2022/02/03 07:08:46;;;;;;;8.30;5.68;;;;;;;-146.41;100.00;57768.22;4963306;28;20151;-67
2022/02/03 07:11:20;;;;;;;8.83;5.23;;;;;;;-146.41;100.00;57768.22;4960483;28;20053;-68
2022/02/03 07:13:50;;;;;;;7.18;4.53;;;;;;;-146.41;100.00;57768.22;4962485;28;20047;-67
2022/02/03 07:16:20;;;;;;;8.55;5.70;;;;;;;-146.41;100.00;57768.22;4963567;28;20130;-67
2022/02/03 07:18:51;;;;;;;5.82;3.42;;;;;;;-146.41;100.00;57768.22;4964303;28;20051;-67
2022/02/03 07:21:21;;;;;;;7.38;4.28;;;;;;;-146.41;100.00;57768.22;4963298;28;20121;-67
2022/02/03 07:23:52;;;;;;;7.05;4.30;;;;;;;-146.41;100.00;57768.22;4964659;28;20054;-67
2022/02/03 07:26:22;;;;;;;7.03;4.10;;;;;;;-146.41;100.00;57768.22;4962458;28;20442;-68
2022/02/03 07:28:53;;;;;;;7.32;4.07;;;;;;;-146.41;100.00;57768.22;4965624;28;20169;-67
2022/02/03 07:31:23;;;;;;;6.95;3.53;;;;;;;-146.41;100.00;57768.22;4962683;28;20047;-67
2022/02/03 07:33:58;;;;;;;7.22;4.15;;;;;;;-146.41;100.00;57768.22;4965045;28;20137;-67
2022/02/03 07:36:28;;;;;;;6.53;3.88;;;;;;;-146.41;100.00;57768.22;4963598;28;20058;-67
2022/02/03 07:39:01;;;;;;;6.70;3.92;;;;;;;-146.41;100.00;57768.22;4965133;28;20094;-67
2022/02/03 07:41:32;;;;;;;10.82;5.65;;;;;;;-146.41;100.00;57768.22;4963665;28;20125;-67
2022/02/03 07:44:03;;;;;;;8.07;5.30;;;;;;;-146.41;100.00;57768.22;4965648;28;20077;-67
2022/02/03 07:46:35;;;;;;;8.13;4.38;;;;;;;-146.41;100.00;57768.22;4963718;28;20067;-67
2022/02/03 07:49:06;;;;;;;9.82;4.88;;;;;;;-146.41;100.00;57768.22;4962608;28;20066;-67
2022/02/03 07:51:36;;;;;;;8.68;5.13;;;;;;;-146.41;100.00;57768.22;4961868;28;20453;-67
2022/02/03 07:54:09;;;;;;;7.47;4.28;;;;;;;-146.41;100.00;57768.22;4964149;28;20057;-67
2022/02/03 07:56:40;;;;;;;11.10;6.53;;;;;;;-146.41;100.00;57768.22;4965009;28;20150;-67
2022/02/03 07:59:10;;;;;;;9.32;5.53;;;;;;;-146.41;100.00;57768.22;4918537;28;1276516;-67
2022/02/03 08:01:41;;;;;;;10.25;4.53;;;;;;;-146.41;100.00;57768.22;4963583;28;20050;-68
2022/02/03 08:04:17;;;;;;;9.35;5.18;;;;;;;-146.41;100.00;57768.22;4963924;28;20150;-68
2022/02/03 08:06:48;;;;;;;9.45;5.03;;;;;;;-146.41;100.00;57768.22;4964734;28;20074;-68
2022/02/03 08:09:24;;;;;;;9.25;5.32;;;;;;;-146.41;100.00;57768.22;4964078;28;20054;-67
2022/02/03 08:11:55;;;;;;;9.70;5.25;;;;;;;-146.41;100.00;57768.22;4965323;28;20051;-68
2022/02/03 08:14:35;;;;;;;10.90;5.47;;;;;;;-146.41;100.00;57768.22;4962265;28;20559;-67
2022/02/03 08:17:14;;;;;;;8.32;2.75;;;;;;;-146.41;100.00;57768.22;4964072;28;20089;-67
2022/02/03 08:19:53;;;;;;;6.93;3.78;;;;;;;-146.41;100.00;57768.22;4964617;28;20054;-68
2022/02/03 08:22:48;;;;;;;6.47;3.70;;;;;;;-146.41;100.00;57768.22;4962989;28;20499;-67
2022/02/03 08:33:05;;;;;;;7.10;3.70;;;;;;;-146.41;100.00;57768.22;4959985;28;20138;-67
2022/02/03 08:43:25;;;;;;;9.05;4.97;;;;;;;-146.41;100.00;57768.22;4962146;28;20420;-67
2022/02/03 08:45:56;;;;;;;9.05;4.97;;;;;;;-146.41;100.00;57768.22;4964485;28;20098;-67
2022/02/03 08:48:26;;;;;;;9.40;5.13;;;;;;;-146.41;100.00;57768.22;4962290;28;20050;-67
2022/02/03 08:51:04;;;;;;;9.15;4.57;;;;;;;-146.41;100.00;57768.22;4962222;28;20438;-68
2022/02/03 08:56:24;;;;;;;12.23;5.63;;;;;;;-146.41;100.00;57768.22;4964360;28;20073;-67
2022/02/03 10:00:26;;;;;;;5.28;2.60;;;;;;;-146.41;100.00;57768.22;4967705;28;20097;-66
2022/02/03 10:03:04;;;;;;;5.25;2.80;;;;;;;-146.41;100.00;57768.22;4966752;28;20161;-66
2022/02/03 10:05:44;;;;;;;3.80;1.90;;;;;;;-146.41;100.00;57768.22;4967965;28;20117;-66
2022/02/03 10:08:18;;;;;;;2.85;1.60;;;;;;;-146.41;100.00;57768.22;4968635;28;20055;-66
2022/02/03 10:10:48;;;;;;;3.33;1.88;;;;;;;-146.41;100.00;57768.22;4963053;28;20043;-66
2022/02/03 10:13:22;;;;;;;3.20;1.67;;;;;;;-146.41;100.00;57768.22;4967558;28;20050;-66
2022/02/03 10:16:07;;;;;;;4.10;2.15;;;;;;;-146.41;100.00;57768.22;4964592;28;20073;-66
2022/02/03 10:18:37;;;;;;;3.25;1.83;;;;;;;-146.41;100.00;57768.22;4970579;28;20489;-66
2022/02/03 10:21:10;;;;;;;5.85;3.22;;;;;;;-146.41;100.00;57768.22;4967454;28;20085;-66
2022/02/03 10:23:50;;;;;;;;;;;;;;;-146.41;100.00;57768.22;4965654;28;20050;-67
2022/02/03 10:26:20;;;;;;;5.50;2.67;;;;;;;-146.41;100.00;57768.22;4969347;28;19928;-66
2022/02/03 10:28:56;;;;;;;2.70;1.52;;;;;;;-146.41;100.00;57768.22;4966638;28;20054;-66
2022/02/03 10:31:42;;;;;;;2.50;1.40;;;;;;;-146.41;100.00;57768.22;4965892;28;20069;-66
2022/02/03 10:34:20;;;;;;;3.25;1.83;;;;;;;-146.41;100.00;57768.22;4969857;28;20050;-66
2022/02/03 10:54:08;;;;;;;3.35;1.60;;;;;;;-146.41;100.00;57768.22;4946979;28;20477;-66
2022/02/03 10:57:14;;;;;;;4.65;2.70;;;;;;;-146.41;100.00;57768.22;4955990;28;20407;-66
2022/02/03 11:10:35;;;;;;;6.43;3.15;;;;;;;-146.41;100.00;57768.22;4987745;28;20128;-67
2022/02/03 11:13:04;;;;;;;5.13;2.97;;;;;;;-146.41;100.00;57768.22;4982895;28;20213;-67
2022/02/03 11:15:35;;;;;;;5.10;3.13;;;;;;;-146.41;100.00;57768.22;4984781;28;20379;-67
2022/02/03 11:18:09;;;;;;;7.22;3.92;;;;;;;-146.41;100.00;57768.22;4983135;28;20069;-68
2022/02/03 11:20:41;;;;;;;5.43;3.03;;;;;;;-146.41;100.00;57768.22;4984694;28;20391;-67
2022/02/03 11:39:27;;;;;;;6.72;4.38;;;;;;;-146.41;100.00;57768.22;4983212;28;20065;-67
2022/02/03 11:50:57;;;;;;;5.70;2.97;;;;;;;-146.41;100.00;57768.22;4979040;28;20450;-67
2022/02/03 11:54:00;;;;;;;4.95;2.58;;;;;;;-146.41;100.00;57768.22;4987338;28;20082;-67
2022/02/03 12:25:32;;;;;;;6.78;3.70;;;;;;;-146.41;100.00;57768.22;4980682;28;20051;-67
2022/02/03 12:28:32;;;;;;;4.47;3.00;;;;;;;-146.41;100.00;57768.22;4890943;29;20090;-67
2022/02/03 12:39:15;;;;;;;4.35;1.83;;;;;;;-146.41;100.00;57768.22;4985983;28;20196;-67
2022/02/03 12:42:03;;;;;;;3.10;1.73;;;;;;;-146.41;100.00;57768.22;4985460;28;20467;-67
2022/02/03 12:44:36;;;;;;;2.70;1.27;;;;;;;-146.41;100.00;57768.22;4987622;28;20042;-67
2022/02/03 12:47:05;;;;;;;2.72;1.60;;;;;;;-146.41;100.00;57768.22;4984847;28;20048;-67
2022/02/03 12:49:38;;;;;;;2.75;1.50;;;;;;;-146.41;100.00;57768.22;4986921;28;20376;-68
2022/02/03 12:52:26;;;;;;;;;;;;;;;-146.41;100.00;57768.22;4986524;28;20062;-67
2022/02/03 12:54:55;;;;;;;3.65;1.52;;;;;;;-146.41;100.00;57768.22;4989120;28;20385;-67
2022/02/03 12:57:30;;;;;;;2.40;1.48;;;;;;;-146.41;100.00;57768.22;4987743;28;20098;-68
2022/02/03 13:00:17;;;;;;;3.15;1.67;;;;;;;-146.41;100.00;57768.22;4987349;28;20136;-67
2022/02/03 13:03:04;;;;;;;3.72;1.60;;;;;;;-146.41;100.00;57768.22;4989077;28;20046;-67
2022/02/03 13:05:35;;;;;;;2.78;1.45;;;;;;;-146.41;100.00;57768.22;4986276;28;20046;-67
2022/02/03 13:08:09;;;;;;;2.55;1.48;;;;;;;-146.41;100.00;57768.22;4986027;28;20506;-67
2022/02/03 13:10:41;;;;;;;3.97;1.48;;;;;;;-146.41;100.00;57768.22;4987844;28;20050;-67
2022/02/03 13:13:23;;;;;;;2.58;1.23;;;;;;;-146.41;100.00;57768.22;4988066;28;20136;-67
2022/02/03 13:15:52;;;;;;;4.32;1.83;;;;;;;-146.41;100.00;57768.22;4987708;28;20046;-67
2022/02/03 13:18:26;;;;;;;2.65;1.40;;;;;;;-146.41;100.00;57768.22;4989108;28;20054;-67
2022/02/03 13:21:08;;;;;;;3.08;1.63;;;;;;;-146.41;100.00;57768.22;4988717;28;20145;-67
2022/02/03 13:23:41;;;;;;;4.55;2.10;;;;;;;-146.41;100.00;57768.22;4985996;28;20129;-67
2022/02/03 13:26:13;;;;;;;3.55;1.90;;;;;;;-146.41;100.00;57768.22;4985591;28;20121;-67
2022/02/03 13:29:07;;;;;;;3.67;1.95;;;;;;;-146.41;100.00;57768.22;4987388;28;20055;-67
2022/02/03 13:31:48;;;;;;;3.55;1.65;;;;;;;-146.41;100.00;57768.22;4986710;28;20210;-67
2022/02/03 13:34:49;;;;;;;4.18;2.20;;;;;;;-146.41;100.00;57768.22;4988854;28;20106;-67
2022/02/03 13:37:26;;;;;;;4.55;2.20;;;;;;;-146.41;100.00;57768.22;4985137;28;20073;-67
2022/02/03 13:40:14;;;;;;;5.82;1.98;;;;;;;-146.41;100.00;57768.22;4980595;28;20130;-67
2022/02/03 13:42:47;;;;;;;4.95;2.53;;;;;;;-146.41;100.00;57768.22;4985287;28;20432;-68
2022/02/03 13:45:20;;;;;;;4.22;2.03;;;;;;;-146.41;100.00;57768.22;4968454;28;20050;-67
2022/02/03 13:47:49;;;;;;;4.35;2.30;;;;;;;-146.41;100.00;57768.22;4986882;28;20068;-68
2022/02/03 13:50:25;;;;;;;4.32;2.38;;;;;;;-146.41;100.00;57768.22;4985513;28;20042;-68
2022/02/03 13:53:21;;;;;;;3.25;1.75;;;;;;;-146.41;100.00;57768.22;4987239;28;20050;-67
2022/02/03 14:21:29;;;;;;;6.22;3.63;;;;;;;-146.41;100.00;57768.22;4985719;28;20419;-67
2022/02/03 14:27:30;;;;;;;7.45;4.35;;;;;;;-146.41;100.00;57768.22;4985676;28;20514;-67
2022/02/03 14:29:43;;;;;;;7.00;4.45;;;;;;;-146.41;100.00;57768.22;4962456;28;20726;-67
2022/02/03 14:32:16;;;;;;;6.85;4.72;;;;;;;-146.41;100.00;57768.22;4984930;28;20054;-67
2022/02/03 14:34:47;;;;;;;7.28;4.60;;;;;;;-146.41;100.00;57768.22;4985023;28;20140;-67
2022/02/03 14:42:28;;;;;;;7.88;5.03;;;;;;;-146.41;100.00;57768.22;4986315;28;20459;-67
2022/02/03 14:44:58;;;;;;;8.90;5.43;;;;;;;-146.41;100.00;57768.22;4981260;28;20574;-67
2022/02/03 14:47:29;;;;;;;9.85;5.20;;;;;;;-146.41;100.00;57768.22;4981765;28;20132;-67
2022/02/03 14:50:02;;;;;;;7.13;5.00;;;;;;;-146.41;100.00;57768.22;4988868;28;20057;-67
2022/02/03 14:52:54;;;;;;;6.75;4.55;;;;;;;-146.41;100.00;57768.22;4985065;28;20161;-67
2022/02/03 14:58:30;;;;;;;7.43;4.88;;;;;;;-146.41;100.00;57768.22;4985041;28;20169;-67
2022/02/03 15:00:57;;;;;;;7.60;5.60;;;;;;;-146.41;100.00;57768.22;4982932;28;20579;-67
2022/02/03 15:03:26;;;;;;;10.15;5.50;;;;;;;-146.41;100.00;57768.22;4984127;28;20644;-67
2022/02/03 15:06:02;;;;;;;7.13;4.60;;;;;;;-146.41;100.00;57768.22;4986758;28;20049;-67
2022/02/03 15:11:42;;;;;;;8.13;3.92;;;;;;;-146.41;100.00;57768.22;4968878;28;20082;-67
2022/02/03 15:14:11;;;;;;;12.07;6.53;;;;;;;-146.41;100.00;57768.22;4984233;28;20047;-67
2022/02/03 15:16:39;;;;;;;7.68;3.80;;;;;;;-146.41;100.00;57768.22;4981938;28;20097;-67
2022/02/03 15:19:23;;;;;;;12.73;5.80;;;;;;;-146.41;100.00;57768.22;4984998;28;20432;-67
2022/02/03 15:21:51;;;;;;;7.80;4.22;;;;;;;-146.41;100.00;57768.22;4985311;28;20145;-67
2022/02/03 15:24:20;;;;;;;10.18;6.35;;;;;;;-146.41;100.00;57768.22;4985004;28;20501;-67
2022/02/03 15:26:48;;;;;;;7.85;5.35;;;;;;;-146.41;100.00;57768.22;4982270;28;20057;-67
2022/02/03 15:29:18;;;;;;;6.28;4.20;;;;;;;-146.41;100.00;57768.22;4983396;28;20085;-67
2022/02/03 15:31:46;;;;;;;7.18;3.60;;;;;;;-146.41;100.00;57768.22;4984717;28;20050;-69
2022/02/03 15:34:35;;;;;;;7.75;4.55;;;;;;;-146.41;100.00;57768.22;4985758;28;20149;-67
2022/02/03 15:37:11;;;;;;;12.93;7.10;;;;;;;-146.41;100.00;57768.22;4983329;28;20120;-67
2022/02/03 15:39:48;;;;;;;6.38;3.38;;;;;;;-146.41;100.00;57768.22;4984333;28;20124;-67
2022/02/03 15:42:23;;;;;;;6.03;3.40;;;;;;;-146.41;100.00;57768.22;4981004;28;20108;-67
2022/02/03 15:44:54;;;;;;;10.02;5.38;;;;;;;-146.41;100.00;57768.22;4982655;28;20558;-67
2022/02/03 15:47:38;;;;;;;8.80;5.47;;;;;;;-146.41;100.00;57768.22;4982339;28;20076;-68
2022/02/03 16:17:26;;;;;;;4.60;2.40;;;;;;;-146.41;100.00;57768.22;4989429;28;20398;-68
2022/02/03 16:53:11;;;;;;;6.43;2.58;;;;;;;-146.41;100.00;57768.22;4985777;28;20054;-68
2022/02/03 16:55:42;;;;;;;5.93;3.45;;;;;;;-146.41;100.00;57768.22;4984949;28;20150;-67
2022/02/03 16:58:11;;;;;;;7.97;3.70;;;;;;;-146.41;100.00;57768.22;4972559;28;20486;-67
2022/02/03 17:00:40;;;;;;;7.05;3.00;;;;;;;-146.41;100.00;57768.22;4984770;28;20089;-68
2022/02/03 17:03:09;;;;;;;4.43;2.42;;;;;;;-146.41;100.00;57768.22;4987137;28;20054;-67
2022/02/03 17:05:38;;;;;;;4.88;3.05;;;;;;;-146.41;100.00;57768.22;4988419;28;20220;-68
2022/02/03 17:08:07;;;;;;;5.68;3.08;;;;;;;-146.41;100.00;57768.22;4988077;28;20062;-67
2022/02/03 17:10:36;;;;;;;4.20;2.78;;;;;;;-146.41;100.00;57768.22;4985541;28;20085;-68
2022/02/03 17:13:05;;;;;;;4.18;2.60;;;;;;;-146.41;100.00;57768.22;4986886;28;20521;-68
2022/02/03 17:15:35;;;;;;;3.75;1.88;;;;;;;-146.41;100.00;57768.22;4984983;28;20050;-67
2022/02/03 17:18:04;;;;;;;4.63;3.00;;;;;;;-146.41;100.00;57768.22;4982381;28;20130;-67
2022/02/03 17:20:35;;;;;;;4.70;2.17;;;;;;;-146.41;100.00;57768.22;4976831;28;20073;-67
2022/02/03 17:23:06;;;;;;;5.07;3.13;;;;;;;-146.41;100.00;57768.22;4986637;28;20085;-70
2022/02/03 17:25:51;;;;;;;5.20;3.20;;;;;;;-146.41;100.00;57768.22;4985989;28;20078;-68
2022/02/03 17:28:54;;;;;;;5.28;3.17;;;;;;;-146.41;100.00;57768.22;4986238;28;20588;-68
2022/02/03 18:52:55;;;;;;;23.33;10.63;;;;;;;-146.41;100.00;57768.22;4981633;28;20137;-67
2022/02/03 18:55:41;;;;;;;28.92;13.13;;;;;;;-146.41;100.00;57768.22;4984427;28;20162;-67
2022/02/03 20:06:39;;;;;;;14.70;9.40;;;;;;;-146.41;100.00;57768.22;4986040;28;20149;-67
2022/02/03 20:11:50;;;;;;;16.48;9.30;;;;;;;-146.41;100.00;57768.22;4983089;28;20046;-67
2022/02/03 20:14:20;;;;;;;13.90;9.48;;;;;;;-146.41;100.00;57768.22;4984130;28;20490;-67
2022/02/03 20:16:49;;;;;;;15.52;9.73;;;;;;;-146.41;100.00;57768.22;4983511;28;20149;-67
2022/02/03 20:19:17;;;;;;;16.27;9.20;;;;;;;-146.41;100.00;57768.22;4983284;28;20054;-67
2022/02/03 20:21:47;;;;;;;16.27;9.77;;;;;;;-146.41;100.00;57768.22;4984705;28;20050;-67
2022/02/03 20:24:15;;;;;;;16.67;10.00;;;;;;;-146.41;100.00;57768.22;4983096;28;20062;-67
2022/02/03 20:26:44;;;;;;;14.48;9.13;;;;;;;-146.41;100.00;57768.22;4984363;28;20510;-67
2022/02/03 20:29:13;;;;;;;17.40;10.80;;;;;;;-146.41;100.00;57768.22;4982808;28;20046;-67
2022/02/03 20:31:42;;;;;;;17.67;10.73;;;;;;;-146.41;100.00;57768.22;4982674;28;20133;-67
2022/02/03 20:34:10;;;;;;;17.80;10.02;;;;;;;-146.41;100.00;57768.22;4983548;28;20133;-68
2022/02/03 20:36:39;;;;;;;18.63;10.50;;;;;;;-146.41;100.00;57768.22;4984321;28;20065;-68
2022/02/03 20:39:07;;;;;;;20.13;12.32;;;;;;;-146.41;100.00;57768.22;4983464;28;20108;-67
2022/02/03 20:41:36;;;;;;;18.65;11.60;;;;;;;-146.41;100.00;57768.22;4983480;28;20423;-68
2022/02/03 20:44:04;;;;;;;17.48;11.80;;;;;;;-146.41;100.00;57768.22;4982502;28;20136;-67
2022/02/03 20:46:39;;;;;;;21.35;12.82;;;;;;;-146.41;100.00;57768.22;4983249;28;20064;-67
2022/02/03 20:49:10;;;;;;;23.42;12.38;;;;;;;-146.41;100.00;57768.22;4982067;28;20081;-67
2022/02/03 20:51:40;;;;;;;19.92;12.63;;;;;;;-146.41;100.00;57768.22;4984557;28;20066;-67
2022/02/03 20:54:08;;;;;;;23.15;13.88;;;;;;;-146.41;100.00;57768.22;4984096;28;20262;-67
2022/02/03 20:56:38;;;;;;;24.23;14.35;;;;;;;-146.41;100.00;57768.22;4985745;28;20461;-67
2022/02/03 20:59:10;;;;;;;24.75;15.73;;;;;;;-146.41;100.00;57768.22;4987189;28;20410;-68
2022/02/03 21:01:40;;;;;;;30.17;15.73;;;;;;;-146.41;100.00;57768.22;4986617;28;20101;-67
2022/02/03 21:04:26;;;;;;;24.75;14.88;;;;;;;-146.41;100.00;57768.22;4986049;28;20060;-67
2022/02/03 21:06:55;;;;;;;25.25;16.05;;;;;;;-146.41;100.00;57768.22;4987376;28;20149;-68
2022/02/03 21:09:24;;;;;;;22.50;14.82;;;;;;;-146.41;100.00;57768.22;4988525;28;20047;-67
2022/02/03 21:11:52;;;;;;;29.90;17.80;;;;;;;-146.41;100.00;57768.22;4988211;28;20051;-67
2022/02/03 21:14:20;;;;;;;24.92;16.50;;;;;;;-146.41;100.00;57768.22;4985903;28;20511;-68
2022/02/03 21:16:52;;;;;;;24.40;15.57;;;;;;;-146.41;100.00;57768.22;4986154;28;20156;-68
2022/02/03 21:19:22;;;;;;;22.90;15.20;;;;;;;-146.41;100.00;57768.22;4987548;28;20168;-68
2022/02/03 21:21:57;;;;;;;26.77;14.40;;;;;;;-146.41;100.00;57768.22;4985876;28;20225;-68
2022/02/03 21:24:26;;;;;;;26.80;15.95;;;;;;;-146.41;100.00;57768.22;4985145;28;20453;-68
2022/02/03 21:26:58;;;;;;;25.92;16.48;;;;;;;-146.41;100.00;57768.22;4987100;28;20129;-68
2022/02/03 21:29:27;;;;;;;23.42;14.65;;;;;;;-146.41;100.00;57768.22;4986898;28;20133;-68
2022/02/03 21:31:56;;;;;;;28.17;15.48;;;;;;;-146.41;100.00;57768.22;4984300;28;20221;-68
2022/02/03 21:34:26;;;;;;;25.20;16.05;;;;;;;-146.41;100.00;57768.22;4985612;28;20141;-67
2022/02/03 21:36:56;;;;;;;22.67;14.57;;;;;;;-146.41;100.00;57768.22;4986060;28;20046;-67
2022/02/03 21:39:24;;;;;;;23.65;15.40;;;;;;;-146.41;100.00;57768.22;4985898;28;20372;-68
2022/02/03 21:41:53;;;;;;;25.52;15.32;;;;;;;-146.41;100.00;57768.22;4985579;28;20661;-68
2022/02/03 21:44:22;;;;;;;29.17;18.95;;;;;;;-146.41;100.00;57768.22;4986597;28;20452;-68
2022/02/03 21:46:51;;;;;;;29.85;15.80;;;;;;;-146.41;100.00;57768.22;4987068;28;20415;-68
2022/02/03 21:49:23;;;;;;;23.95;14.98;;;;;;;-146.41;100.00;57768.22;4986371;28;20383;-68
2022/02/03 21:51:54;;;;;;;25.67;15.05;;;;;;;-146.41;100.00;57768.22;4985293;28;20141;-68
2022/02/03 21:54:24;;;;;;;26.23;15.98;;;;;;;-146.41;100.00;57768.22;4985038;28;20133;-68
2022/02/03 21:56:52;;;;;;;29.35;15.80;;;;;;;-146.41;100.00;57768.22;4986895;28;20133;-68
2022/02/03 21:59:21;;;;;;;30.88;16.38;;;;;;;-146.41;100.00;57768.22;4989129;28;20097;-68
2022/02/03 22:01:49;;;;;;;28.70;16.00;;;;;;;-146.41;100.00;57768.22;4987563;28;20043;-67
2022/02/03 22:04:17;;;;;;;29.38;15.98;;;;;;;-146.41;100.00;57768.22;4989140;28;20058;-68
2022/02/03 22:06:46;;;;;;;22.50;14.85;;;;;;;-146.41;100.00;57768.22;4987904;28;20133;-68
2022/02/03 22:09:14;;;;;;;26.08;17.63;;;;;;;-146.41;100.00;57768.22;4989482;28;20056;-68
2022/02/03 22:11:43;;;;;;;31.95;18.00;;;;;;;-146.41;100.00;57768.22;4988936;28;20517;-68
2022/02/03 22:14:12;;;;;;;32.95;18.08;;;;;;;-146.41;100.00;57768.22;4988355;28;20069;-67
2022/02/03 22:16:41;;;;;;;26.33;16.05;;;;;;;-146.41;100.00;57768.22;4987423;28;20053;-68
2022/02/03 22:19:09;;;;;;;29.00;17.70;;;;;;;-146.41;100.00;57768.22;4988622;28;20046;-68
2022/02/03 22:43:02;;;;;;;37.88;19.25;;;;;;;-146.41;100.00;57768.22;4988617;28;20046;-68
2022/02/03 22:45:55;;;;;;;29.77;17.42;;;;;;;-146.41;100.00;57768.22;4986943;28;20149;-68
2022/02/03 22:48:26;;;;;;;33.85;19.00;;;;;;;-146.41;100.00;57768.22;4989842;28;20130;-68
2022/02/03 22:50:58;;;;;;;29.20;17.02;;;;;;;-146.41;100.00;57768.22;4988778;28;20039;-68
2022/02/03 22:53:33;;;;;;;28.67;17.63;;;;;;;-146.41;100.00;57768.22;4984300;28;20410;-68
2022/02/03 22:56:05;;;;;;;27.63;17.02;;;;;;;-146.41;100.00;57768.22;4989423;28;20058;-68
2022/02/03 23:01:07;;;;;;;25.25;16.35;;;;;;;-146.41;100.00;57768.22;4987252;28;20137;-68
2022/02/03 23:03:36;;;;;;;27.55;15.73;;;;;;;-146.41;100.00;57768.22;4987959;28;20050;-68
2022/02/03 23:06:06;;;;;;;29.13;17.90;;;;;;;-146.41;100.00;57768.22;4988786;28;20142;-69
2022/02/03 23:24:34;;;;;;;23.75;15.05;;;;;;;-146.41;100.00;57768.22;4986762;28;20133;-68
2022/02/03 23:28:10;;;;;;;24.30;14.85;;;;;;;-146.41;100.00;57768.22;4987642;28;20061;-68
2022/02/03 23:30:01;;;;;;;26.17;16.73;;;;;;;-146.41;100.00;57768.22;4975697;28;20069;-68
2022/02/03 23:32:31;;;;;;;29.98;16.95;;;;;;;-146.41;100.00;57768.22;4988090;28;20052;-68
2022/02/03 23:35:25;;;;;;;24.27;15.63;;;;;;;-146.41;100.00;57768.22;4988074;28;20052;-68
2022/02/03 23:38:08;;;;;;;24.15;14.80;;;;;;;-146.41;100.00;57768.22;4988145;28;20059;-68
